createdAt,value
2022-11-21T00:01:52.428Z,-3.35
2022-11-21T00:04:18.859Z,-3.42
2022-11-21T00:06:45.229Z,-3.45
2022-11-21T00:09:11.671Z,-3.48
2022-11-21T00:11:38.108Z,-3.49
2022-11-21T00:14:04.619Z,-3.48
2022-11-21T00:16:31.179Z,-3.42
2022-11-21T00:18:57.718Z,-3.43
2022-11-21T00:21:24.124Z,-3.45
2022-11-21T00:23:52.672Z,-3.49
2022-11-21T00:26:19.030Z,-3.53
2022-11-21T00:28:45.590Z,-3.57
2022-11-21T00:31:22.020Z,-3.59
2022-11-21T00:33:48.541Z,-3.54
2022-11-21T00:36:14.941Z,-3.50
2022-11-21T00:38:41.390Z,-3.49
2022-11-21T00:41:07.898Z,-3.52
2022-11-21T00:43:34.289Z,-3.61
2022-11-21T00:46:02.788Z,-3.68
2022-11-21T00:48:29.997Z,-3.71
2022-11-21T00:50:56.643Z,-3.71
2022-11-21T00:53:23.085Z,-3.69
2022-11-21T00:55:49.518Z,-3.62
2022-11-21T00:58:15.911Z,-3.59
2022-11-21T01:00:42.421Z,-3.64
2022-11-21T01:03:08.866Z,-3.65
2022-11-21T01:05:35.251Z,-3.74
2022-11-21T01:08:01.672Z,-3.78
2022-11-21T01:10:28.035Z,-3.86
2022-11-21T01:12:54.409Z,-3.82
2022-11-21T01:15:20.936Z,-3.82
2022-11-21T01:17:47.308Z,-3.83
2022-11-21T01:20:13.809Z,-3.87
2022-11-21T01:22:40.247Z,-3.91
2022-11-21T01:25:07.229Z,-3.91
2022-11-21T01:27:33.920Z,-3.88
2022-11-21T01:30:00.486Z,-3.80
2022-11-21T01:32:26.863Z,-3.77
2022-11-21T01:34:53.232Z,-3.76
2022-11-21T01:37:19.629Z,-3.78
2022-11-21T01:39:45.993Z,-3.82
2022-11-21T01:42:12.749Z,-3.82
2022-11-21T01:44:53.605Z,-3.88
2022-11-21T01:47:20.946Z,-3.93
2022-11-21T01:49:47.937Z,-4.00
2022-11-21T01:52:17.465Z,-4.04
2022-11-21T01:54:49.558Z,-4.09
2022-11-21T01:57:19.311Z,-4.14
2022-11-21T01:59:58.854Z,-4.18
2022-11-21T02:02:29.578Z,-4.21
2022-11-21T02:04:56.705Z,-4.22
2022-11-21T02:07:24.615Z,-4.26
2022-11-21T02:09:52.499Z,-4.23
2022-11-21T02:12:38.793Z,-4.18
2022-11-21T02:15:05.707Z,-4.13
2022-11-21T02:17:32.624Z,-4.09
2022-11-21T02:20:00.748Z,-4.07
2022-11-21T02:22:45.719Z,-4.13
2022-11-21T02:25:14.332Z,-4.18
2022-11-21T02:27:40.838Z,-4.17
2022-11-21T02:30:08.991Z,-4.13
2022-11-21T02:32:36.937Z,-4.15
2022-11-21T02:35:03.550Z,-4.13
2022-11-21T02:37:31.028Z,-4.12
2022-11-21T02:39:59.242Z,-4.16
2022-11-21T02:42:25.637Z,-4.23
2022-11-21T02:45:02.003Z,-4.30
2022-11-21T02:47:29.148Z,-4.35
2022-11-21T02:49:58.062Z,-4.35
2022-11-21T02:52:24.480Z,-4.39
2022-11-21T02:54:50.933Z,-4.40
2022-11-21T02:57:17.355Z,-4.38
2022-11-21T02:59:43.719Z,-4.32
2022-11-21T03:02:10.116Z,-4.32
2022-11-21T03:04:36.516Z,-4.39
2022-11-21T03:07:02.973Z,-4.46
2022-11-21T03:09:29.401Z,-4.47
2022-11-21T03:11:55.821Z,-4.38
2022-11-21T03:14:22.261Z,-4.35
2022-11-21T03:16:48.714Z,-4.40
2022-11-21T03:19:15.114Z,-4.44
2022-11-21T03:21:41.492Z,-4.49
2022-11-21T03:24:08.138Z,-4.54
2022-11-21T03:26:34.518Z,-4.55
2022-11-21T03:29:00.957Z,-4.50
2022-11-21T03:31:27.344Z,-4.46
2022-11-21T03:33:53.750Z,-4.53
2022-11-21T03:36:20.168Z,-4.60
2022-11-21T03:38:46.529Z,-4.64
2022-11-21T03:41:31.209Z,-4.64
2022-11-21T03:43:57.583Z,-4.53
2022-11-21T03:46:24.108Z,-4.49
2022-11-21T03:48:50.491Z,-4.56
2022-11-21T03:51:16.984Z,-4.63
2022-11-21T03:53:43.382Z,-4.69
2022-11-21T03:56:09.834Z,-4.75
2022-11-21T03:58:36.220Z,-4.72
2022-11-21T04:01:02.777Z,-4.69
2022-11-21T04:03:29.251Z,-4.61
2022-11-21T04:05:55.657Z,-4.65
2022-11-21T04:08:22.081Z,-4.70
2022-11-21T04:10:48.787Z,-4.71
2022-11-21T04:13:15.191Z,-4.73
2022-11-21T04:15:41.798Z,-4.67
2022-11-21T04:18:08.206Z,-4.60
2022-11-21T04:20:34.635Z,-4.61
2022-11-21T04:23:01.171Z,-4.69
2022-11-21T04:25:27.688Z,-4.72
2022-11-21T04:27:57.337Z,-4.72
2022-11-21T04:30:24.094Z,-4.69
2022-11-21T04:32:51.239Z,-4.74
2022-11-21T04:35:17.928Z,-4.77
2022-11-21T04:37:44.369Z,-4.77
2022-11-21T04:40:11.157Z,-4.79
2022-11-21T04:42:37.594Z,-4.85
2022-11-21T04:45:04.199Z,-4.91
2022-11-21T04:47:30.587Z,-4.93
2022-11-21T04:49:57.007Z,-4.86
2022-11-21T04:52:23.567Z,-4.82
2022-11-21T04:54:49.925Z,-4.81
2022-11-21T04:57:16.305Z,-4.70
2022-11-21T04:59:42.720Z,-4.72
2022-11-21T05:02:09.238Z,-4.65
2022-11-21T05:04:35.608Z,-4.71
2022-11-21T05:07:02.058Z,-4.76
2022-11-21T05:09:28.586Z,-4.73
2022-11-21T05:12:13.790Z,-4.71
2022-11-21T05:14:40.165Z,-4.77
2022-11-21T05:17:06.643Z,-4.79
2022-11-21T05:19:33.142Z,-4.84
2022-11-21T05:21:59.500Z,-4.85
2022-11-21T05:24:26.448Z,-4.80
2022-11-21T05:26:53.926Z,-4.79
2022-11-21T05:29:25.200Z,-4.74
2022-11-21T05:31:54.198Z,-4.65
2022-11-21T05:34:20.597Z,-4.64
2022-11-21T05:36:46.972Z,-4.67
2022-11-21T05:39:13.348Z,-4.63
2022-11-21T05:41:39.737Z,-4.55
2022-11-21T05:44:06.169Z,-4.54
2022-11-21T05:46:32.601Z,-4.51
2022-11-21T05:48:59.059Z,-4.45
2022-11-21T05:51:25.462Z,-4.42
2022-11-21T05:53:51.980Z,-4.46
2022-11-21T05:56:19.418Z,-4.44
2022-11-21T05:58:46.009Z,-4.43
2022-11-21T06:01:14.556Z,-4.43
2022-11-21T06:03:41.875Z,-4.46
2022-11-21T06:06:11.362Z,-4.46
2022-11-21T06:08:38.726Z,-4.43
2022-11-21T06:11:06.058Z,-4.37
2022-11-21T06:13:33.799Z,-4.34
2022-11-21T06:16:04.794Z,-4.30
2022-11-21T06:18:32.575Z,-4.27
2022-11-21T06:21:07.607Z,-4.27
2022-11-21T06:23:34.388Z,-4.25
2022-11-21T06:26:01.983Z,-4.24
2022-11-21T06:28:30.767Z,-4.22
2022-11-21T06:30:57.907Z,-4.19
2022-11-21T06:33:24.288Z,-4.13
2022-11-21T06:35:50.748Z,-4.16
2022-11-21T06:38:18.799Z,-4.18
2022-11-21T06:40:45.272Z,-4.18
2022-11-21T06:43:11.746Z,-4.18
2022-11-21T06:45:38.183Z,-4.15
2022-11-21T06:48:04.628Z,-4.05
2022-11-21T06:50:31.441Z,-4.02
2022-11-21T06:52:58.750Z,-4.03
2022-11-21T06:55:26.385Z,-4.02
2022-11-21T06:57:52.896Z,-4.00
2022-11-21T07:00:20.949Z,-4.00
2022-11-21T07:02:47.373Z,-4.01
2022-11-21T07:05:13.976Z,-4.03
2022-11-21T07:07:40.457Z,-4.06
2022-11-21T07:10:07.214Z,-4.08
2022-11-21T07:12:53.288Z,-4.08
2022-11-21T07:15:19.706Z,-4.00
2022-11-21T07:17:46.086Z,-4.02
2022-11-21T07:20:12.501Z,-4.05
2022-11-21T07:22:38.971Z,-4.05
2022-11-21T07:25:05.518Z,-3.99
2022-11-21T07:27:31.926Z,-3.85
2022-11-21T07:29:58.628Z,-3.75
2022-11-21T07:32:25.332Z,-3.70
2022-11-21T07:34:51.850Z,-3.67
2022-11-21T07:37:18.246Z,-3.66
2022-11-21T07:39:44.596Z,-3.65
2022-11-21T07:42:10.993Z,-3.63
2022-11-21T07:44:37.378Z,-3.61
2022-11-21T07:47:03.862Z,-3.54
2022-11-21T07:49:30.663Z,-3.47
2022-11-21T07:51:58.089Z,-3.42
2022-11-21T07:54:24.491Z,-3.37
2022-11-21T07:56:50.903Z,-3.40
2022-11-21T07:59:19.304Z,-3.43
2022-11-21T08:01:45.901Z,-3.37
2022-11-21T08:04:12.329Z,-3.29
2022-11-21T08:06:38.811Z,-3.38
2022-11-21T08:09:05.191Z,-3.44
2022-11-21T08:11:32.432Z,-3.44
2022-11-21T08:13:59.255Z,-3.42
2022-11-21T08:16:28.233Z,-3.38
2022-11-21T08:18:54.784Z,-3.36
2022-11-21T08:21:21.142Z,-3.46
2022-11-21T08:23:47.702Z,-3.46
2022-11-21T08:26:14.078Z,-3.38
2022-11-21T08:28:40.496Z,-3.25
2022-11-21T08:31:07.052Z,-3.11
2022-11-21T08:33:33.532Z,-3.01
2022-11-21T08:36:03.628Z,-2.94
2022-11-21T08:38:30.012Z,-2.88
2022-11-21T08:41:17.827Z,-2.86
2022-11-21T08:43:44.531Z,-2.80
2022-11-21T08:46:10.924Z,-2.76
2022-11-21T08:48:37.291Z,-2.67
2022-11-21T08:51:03.714Z,-2.58
2022-11-21T08:53:30.105Z,-2.54
2022-11-21T08:56:00.146Z,-2.43
2022-11-21T08:58:29.278Z,-2.34
2022-11-21T09:00:58.727Z,-2.25
2022-11-21T09:03:30.679Z,-2.18
2022-11-21T09:05:57.819Z,-2.12
2022-11-21T09:08:24.300Z,-2.06
2022-11-21T09:10:53.567Z,-2.07
2022-11-21T09:13:20.057Z,-2.10
2022-11-21T09:16:05.080Z,-2.06
2022-11-21T09:18:31.514Z,-2.07
2022-11-21T09:20:59.080Z,-2.02
2022-11-21T09:23:25.728Z,-1.93
2022-11-21T09:25:52.206Z,-1.87
2022-11-21T09:28:18.597Z,-1.80
2022-11-21T09:30:45.015Z,-1.77
2022-11-21T09:33:12.369Z,-1.69
2022-11-21T09:35:38.885Z,-1.60
2022-11-21T09:38:05.710Z,-1.52
2022-11-21T09:40:33.255Z,-1.46
2022-11-21T09:42:59.606Z,-1.36
2022-11-21T09:45:30.142Z,-1.31
2022-11-21T09:47:56.751Z,-1.26
2022-11-21T09:50:29.138Z,-1.23
2022-11-21T09:52:55.501Z,-1.16
2022-11-21T09:55:31.844Z,-1.12
2022-11-21T09:58:00.888Z,-1.09
2022-11-21T10:00:28.530Z,-1.04
2022-11-21T10:02:55.919Z,-0.95
2022-11-21T10:05:31.433Z,-0.86
2022-11-21T10:08:01.452Z,-0.78
2022-11-21T10:10:37.563Z,-0.70
2022-11-21T10:13:06.993Z,-0.65
2022-11-21T10:15:48.957Z,-0.61
2022-11-21T10:18:15.374Z,-0.60
2022-11-21T10:20:54.155Z,-0.58
2022-11-21T10:23:26.783Z,-0.48
2022-11-21T10:25:59.683Z,-0.40
2022-11-21T10:28:38.380Z,-0.33
2022-11-21T10:31:08.889Z,-0.28
2022-11-21T10:33:40.340Z,-0.26
2022-11-21T10:36:17.524Z,-0.25
2022-11-21T10:38:44.404Z,-0.18
2022-11-21T10:41:34.828Z,-0.08
2022-11-21T10:44:24.474Z,0.03
2022-11-21T10:46:57.569Z,0.09
2022-11-21T10:49:25.393Z,0.16
2022-11-21T10:52:15.078Z,0.24
2022-11-21T10:55:00.277Z,0.36
2022-11-21T10:57:29.924Z,0.40
2022-11-21T10:59:59.366Z,0.45
2022-11-21T11:02:26.239Z,0.49
2022-11-21T11:05:11.210Z,0.50
2022-11-21T11:07:37.713Z,0.46
2022-11-21T11:10:16.335Z,0.45
2022-11-21T11:13:01.963Z,0.50
2022-11-21T11:15:31.580Z,0.60
2022-11-21T11:18:04.141Z,0.66
2022-11-21T11:20:36.416Z,0.74
2022-11-21T11:23:16.137Z,0.78
2022-11-21T11:25:46.325Z,0.85
2022-11-21T11:28:12.858Z,0.94
2022-11-21T11:30:40.156Z,0.95
2022-11-21T11:33:25.308Z,1.06
2022-11-21T11:35:51.864Z,1.16
2022-11-21T11:38:19.797Z,1.23
2022-11-21T11:40:46.336Z,1.26
2022-11-21T11:43:51.427Z,1.26
2022-11-21T11:46:55.169Z,1.31
2022-11-21T11:49:27.324Z,1.34
2022-11-21T11:51:55.514Z,1.42
2022-11-21T11:54:24.919Z,1.45
2022-11-21T11:56:51.488Z,1.47
2022-11-21T11:59:17.896Z,1.57
2022-11-21T12:01:48.527Z,1.56
2022-11-21T12:04:19.662Z,1.57
2022-11-21T12:07:52.784Z,1.69
2022-11-21T12:09:35.154Z,1.75
2022-11-21T12:12:15.877Z,1.79
2022-11-21T12:15:12.849Z,1.88
2022-11-21T12:17:47.083Z,1.96
2022-11-21T12:20:22.821Z,1.94
2022-11-21T12:22:51.912Z,1.97
2022-11-21T12:25:20.065Z,2.05
2022-11-21T12:27:50.929Z,2.10
2022-11-21T12:30:17.312Z,2.20
2022-11-21T12:32:43.654Z,2.27
2022-11-21T12:35:28.766Z,2.33
2022-11-21T12:37:55.220Z,2.37
2022-11-21T12:40:43.257Z,2.44
2022-11-21T12:43:12.564Z,2.49
2022-11-21T12:45:59.172Z,2.53
2022-11-21T12:48:44.249Z,2.56
2022-11-21T12:51:38.312Z,2.55
2022-11-21T12:54:30.875Z,2.55
2022-11-21T12:57:12.303Z,2.56
2022-11-21T12:59:48.047Z,2.58
2022-11-21T13:02:26.382Z,2.63
2022-11-21T13:04:54.687Z,2.62
2022-11-21T13:07:21.945Z,2.60
2022-11-21T13:09:50.665Z,2.62
2022-11-21T13:12:19.884Z,2.64
2022-11-21T13:15:06.520Z,2.60
2022-11-21T13:17:34.703Z,2.58
2022-11-21T13:20:13.390Z,2.61
2022-11-21T13:22:39.856Z,2.66
2022-11-21T13:25:09.569Z,2.65
2022-11-21T13:27:39.125Z,2.59
2022-11-21T13:30:09.387Z,2.63
2022-11-21T13:32:38.664Z,2.65
2022-11-21T13:35:20.346Z,2.67
2022-11-21T13:37:49.476Z,2.67
2022-11-21T13:40:28.172Z,2.67
2022-11-21T13:45:59.196Z,2.74
2022-11-21T13:48:28.665Z,2.75
2022-11-21T13:51:02.830Z,2.69
2022-11-21T13:53:58.859Z,2.69
2022-11-21T13:56:26.086Z,2.72
2022-11-21T13:59:17.375Z,2.73
2022-11-21T14:01:46.912Z,2.70
2022-11-21T14:04:24.622Z,2.62
2022-11-21T14:06:51.085Z,2.60
2022-11-21T14:09:28.272Z,2.59
2022-11-21T14:11:54.838Z,2.63
2022-11-21T14:14:30.441Z,2.59
2022-11-21T14:17:08.953Z,2.53
2022-11-21T14:19:36.129Z,2.55
2022-11-21T14:22:02.649Z,2.54
2022-11-21T14:24:30.128Z,2.52
2022-11-21T14:26:56.791Z,2.51
2022-11-21T14:29:39.139Z,2.53
2022-11-21T14:32:06.232Z,2.61
2022-11-21T14:34:33.203Z,2.62
2022-11-21T14:37:00.648Z,2.69
2022-11-21T14:39:37.671Z,2.72
2022-11-21T14:42:11.226Z,2.76
2022-11-21T14:44:38.068Z,2.79
2022-11-21T14:47:13.995Z,2.81
2022-11-21T14:49:48.571Z,2.69
2022-11-21T14:52:17.453Z,2.67
2022-11-21T14:55:06.166Z,2.63
2022-11-21T14:57:36.320Z,2.62
2022-11-21T15:00:05.378Z,2.60
2022-11-21T15:02:32.169Z,2.58
2022-11-21T15:05:24.836Z,2.56
2022-11-21T15:08:23.935Z,2.55
2022-11-21T15:10:47.271Z,2.54
2022-11-21T15:13:16.099Z,2.52
2022-11-21T15:15:43.821Z,2.52
2022-11-21T15:18:27.378Z,2.47
2022-11-21T15:20:59.175Z,2.46
2022-11-21T15:23:29.985Z,2.48
2022-11-21T15:26:00.646Z,2.53
2022-11-21T15:28:53.866Z,2.55
2022-11-21T15:31:21.335Z,2.56
2022-11-21T15:34:33.280Z,2.58
2022-11-21T15:36:44.969Z,2.61
2022-11-21T15:39:19.323Z,2.63
2022-11-21T15:41:46.134Z,2.62
2022-11-21T15:44:12.616Z,2.61
2022-11-21T15:46:42.368Z,2.59
2022-11-21T15:49:31.543Z,2.59
2022-11-21T15:52:11.543Z,2.56
2022-11-21T15:54:38.330Z,2.57
2022-11-21T15:57:04.750Z,2.56
2022-11-21T15:59:31.641Z,2.57
2022-11-21T16:01:58.279Z,2.54
2022-11-21T16:04:26.197Z,2.52
2022-11-21T16:06:53.378Z,2.50
2022-11-21T16:09:19.823Z,2.47
2022-11-21T16:11:47.218Z,2.43
2022-11-21T16:14:15.037Z,2.37
2022-11-21T16:16:43.476Z,2.33
2022-11-21T16:19:10.913Z,2.32
2022-11-21T16:21:37.677Z,2.31
2022-11-21T16:24:04.611Z,2.29
2022-11-21T16:26:31.023Z,2.28
2022-11-21T16:28:58.043Z,2.25
2022-11-21T16:31:25.533Z,2.18
2022-11-21T16:33:52.175Z,2.19
2022-11-21T16:36:26.079Z,2.19
2022-11-21T16:38:52.776Z,2.20
2022-11-21T16:41:19.939Z,2.21
2022-11-21T16:43:47.970Z,2.19
2022-11-21T16:46:14.569Z,2.20
2022-11-21T16:48:41.825Z,2.19
2022-11-21T16:51:19.004Z,2.17
2022-11-21T16:53:48.005Z,2.14
2022-11-21T16:56:15.426Z,2.13
2022-11-21T16:58:42.276Z,2.14
2022-11-21T17:01:13.020Z,2.10
2022-11-21T17:03:40.601Z,2.06
2022-11-21T17:06:07.489Z,2.02
2022-11-21T17:08:34.286Z,2.00
2022-11-21T17:11:11.077Z,1.98
2022-11-21T17:13:37.719Z,1.96
2022-11-21T17:16:04.952Z,1.95
2022-11-21T17:18:31.429Z,1.92
2022-11-21T17:20:57.815Z,1.91
2022-11-21T17:23:24.236Z,1.89
2022-11-21T17:25:50.608Z,1.87
2022-11-21T17:28:16.992Z,1.86
2022-11-21T17:30:44.201Z,1.86
2022-11-21T17:33:10.829Z,1.85
2022-11-21T17:35:37.206Z,1.84
2022-11-21T17:38:03.685Z,1.83
2022-11-21T17:40:30.174Z,1.83
2022-11-21T17:42:56.739Z,1.84
2022-11-21T17:45:23.120Z,1.82
2022-11-21T17:47:49.503Z,1.80
2022-11-21T17:50:15.901Z,1.79
2022-11-21T17:52:42.306Z,1.80
2022-11-21T17:55:08.761Z,1.82
2022-11-21T17:57:35.270Z,1.80
2022-11-21T18:00:01.737Z,1.79
2022-11-21T18:02:28.248Z,1.80
2022-11-21T18:04:54.740Z,1.81
2022-11-21T18:07:21.225Z,1.80
2022-11-21T18:09:48.039Z,1.80
2022-11-21T18:12:14.499Z,1.82
2022-11-21T18:14:40.912Z,1.83
2022-11-21T18:17:07.290Z,1.86
2022-11-21T18:19:34.168Z,1.85
2022-11-21T18:22:00.537Z,1.86
2022-11-21T18:24:27.780Z,1.85
2022-11-21T18:26:54.597Z,1.77
2022-11-21T18:29:38.260Z,1.73
2022-11-21T18:32:05.104Z,1.76
2022-11-21T18:34:31.466Z,1.77
2022-11-21T18:36:57.887Z,1.79
2022-11-21T18:39:25.187Z,1.79
2022-11-21T18:41:51.653Z,1.80
2022-11-21T18:44:22.302Z,1.83
2022-11-21T18:46:49.443Z,1.82
2022-11-21T18:49:15.834Z,1.82
2022-11-21T18:51:42.238Z,1.82
2022-11-21T18:54:10.319Z,1.84
2022-11-21T18:56:37.768Z,1.90
2022-11-21T18:59:05.993Z,1.93
2022-11-21T19:01:33.185Z,1.96
2022-11-21T19:03:59.813Z,2.00
2022-11-21T19:06:27.162Z,2.05
2022-11-21T19:08:54.287Z,2.10
2022-11-21T19:11:21.817Z,2.13
2022-11-21T19:13:48.723Z,2.10
2022-11-21T19:16:17.101Z,2.12
2022-11-21T19:18:48.500Z,2.16
2022-11-21T19:21:22.134Z,2.19
2022-11-21T19:23:48.556Z,2.17
2022-11-21T19:26:17.003Z,2.19
2022-11-21T19:28:44.390Z,2.20
2022-11-21T19:31:11.947Z,2.16
2022-11-21T19:33:38.612Z,2.18
2022-11-21T19:36:07.144Z,2.18
2022-11-21T19:38:34.033Z,2.13
2022-11-21T19:41:13.263Z,2.05
2022-11-21T19:43:46.869Z,2.01
2022-11-21T19:46:13.899Z,1.96
2022-11-21T19:48:40.737Z,1.92
2022-11-21T19:51:08.008Z,1.94
2022-11-21T19:53:38.563Z,1.92
2022-11-21T19:56:18.679Z,1.93
2022-11-21T19:58:45.884Z,1.91
2022-11-21T20:01:22.878Z,1.88
2022-11-21T20:03:50.936Z,1.79
2022-11-21T20:06:24.812Z,1.77
2022-11-21T20:08:55.457Z,1.79
2022-11-21T20:11:22.796Z,1.74
2022-11-21T20:13:50.117Z,1.62
2022-11-21T20:16:42.841Z,1.53
2022-11-21T20:19:10.698Z,1.47
2022-11-21T20:21:37.601Z,1.41
2022-11-21T20:24:04.222Z,1.36
2022-11-21T20:26:30.657Z,1.37
2022-11-21T20:28:57.438Z,1.36
2022-11-21T20:31:27.306Z,1.38
2022-11-21T20:33:58.286Z,1.39
2022-11-21T20:36:25.629Z,1.34
2022-11-21T20:38:53.943Z,1.31
2022-11-21T20:41:21.358Z,1.27
2022-11-21T20:44:53.304Z,1.22
2022-11-21T20:46:34.871Z,1.23
2022-11-21T20:49:01.341Z,1.23
2022-11-21T20:54:14.289Z,1.29
2022-11-21T20:56:44.176Z,1.27
2022-11-21T20:59:11.282Z,1.22
2022-11-21T21:01:37.755Z,1.20
2022-11-21T21:04:04.265Z,1.26
2022-11-21T21:06:30.899Z,1.28
2022-11-21T21:08:57.361Z,1.26
2022-11-21T21:14:11.184Z,1.26
2022-11-21T21:16:37.577Z,1.29
2022-11-21T21:19:04.037Z,1.25
2022-11-21T21:21:33.357Z,1.19
2022-11-21T21:24:04.371Z,1.23
2022-11-21T21:26:37.145Z,1.26
2022-11-21T21:29:07.062Z,1.31
2022-11-21T21:31:33.776Z,1.29
2022-11-21T21:34:00.943Z,1.27
2022-11-21T21:36:27.433Z,1.26
2022-11-21T21:38:55.039Z,1.23
2022-11-21T21:41:22.155Z,1.20
2022-11-21T21:43:49.110Z,1.20
2022-11-21T21:46:16.297Z,1.20
2022-11-21T21:48:43.302Z,1.21
2022-11-21T21:51:17.006Z,1.26
2022-11-21T21:53:43.879Z,1.26
2022-11-21T21:56:10.566Z,1.28
2022-11-21T21:58:38.279Z,1.31
2022-11-21T22:01:04.764Z,1.35
2022-11-21T22:03:31.505Z,1.39
2022-11-21T22:06:01.966Z,1.42
2022-11-21T22:08:29.746Z,1.46
2022-11-21T22:11:09.833Z,1.46
2022-11-21T22:13:36.953Z,1.39
2022-11-21T22:16:04.126Z,1.38
2022-11-21T22:18:30.695Z,1.38
2022-11-21T22:20:57.718Z,1.44
2022-11-21T22:23:24.468Z,1.44
2022-11-21T22:25:55.006Z,1.48
2022-11-21T22:28:21.439Z,1.48
2022-11-21T22:30:57.975Z,1.47
2022-11-21T22:33:24.879Z,1.43
2022-11-21T22:35:51.707Z,1.42
2022-11-21T22:38:18.158Z,1.43
2022-11-21T22:40:45.221Z,1.45
2022-11-21T22:43:12.097Z,1.47
2022-11-21T22:45:38.617Z,1.49
2022-11-21T22:48:05.811Z,1.44
2022-11-21T22:50:32.658Z,1.39
2022-11-21T22:52:59.204Z,1.43
2022-11-21T22:55:25.591Z,1.47
2022-11-21T22:57:51.968Z,1.43
2022-11-21T23:00:18.700Z,1.41
2022-11-21T23:02:45.108Z,1.46
2022-11-21T23:05:11.688Z,1.50
2022-11-21T23:07:38.492Z,1.52
2022-11-21T23:10:05.130Z,1.53
2022-11-21T23:12:31.540Z,1.59
2022-11-21T23:14:57.932Z,1.60
2022-11-21T23:17:24.328Z,1.53
2022-11-21T23:19:50.883Z,1.55
2022-11-21T23:22:17.250Z,1.57
2022-11-21T23:24:43.860Z,1.57
2022-11-21T23:27:10.282Z,1.58
2022-11-21T23:29:36.658Z,1.61
2022-11-21T23:32:03.062Z,1.59
2022-11-21T23:34:29.619Z,1.57
2022-11-21T23:36:56.050Z,1.61
2022-11-21T23:39:22.646Z,1.66
2022-11-21T23:41:49.041Z,1.68
2022-11-21T23:44:15.434Z,1.70
2022-11-21T23:46:41.870Z,1.73
2022-11-21T23:49:08.494Z,1.68
2022-11-21T23:51:34.984Z,1.65
2022-11-21T23:54:01.434Z,1.57
2022-11-21T23:56:27.813Z,1.52
2022-11-21T23:58:54.223Z,1.48
